createdAt,value
2018-11-22T12:17:56.989Z,10.66
2018-11-22T12:20:26.652Z,10.52
2018-11-22T12:22:57.604Z,10.47
2018-11-22T12:25:28.130Z,10.64
2018-11-22T12:27:59.265Z,10.71
2018-11-22T12:30:31.998Z,10.69
2018-11-22T12:33:07.061Z,10.58
2018-11-22T12:35:41.831Z,10.50
2018-11-22T12:38:16.666Z,10.57
2018-11-22T12:40:46.455Z,10.78
2018-11-22T12:43:16.288Z,10.54
2018-11-22T12:45:45.965Z,10.50
2018-11-22T12:48:15.933Z,10.17
2018-11-22T12:50:45.659Z,10.20
2018-11-22T12:53:15.558Z,10.32
2018-11-22T12:55:45.549Z,10.55
2018-11-22T12:58:15.235Z,10.48
2018-11-22T13:00:45.360Z,10.51
2018-11-22T13:03:15.117Z,10.56
2018-11-22T13:05:44.955Z,10.42
2018-11-22T13:08:15.738Z,10.35
2018-11-22T13:10:45.563Z,10.59
2018-11-22T13:13:16.064Z,10.39
2018-11-22T13:15:46.038Z,10.41
2018-11-22T13:18:16.282Z,10.56
2018-11-22T13:20:46.118Z,10.54
2018-11-22T13:23:16.091Z,10.50
2018-11-22T13:25:45.835Z,10.34
2018-11-22T13:28:15.802Z,10.27
2018-11-22T13:30:45.644Z,10.37
2018-11-22T13:33:15.420Z,10.29
2018-11-22T13:35:45.627Z,10.28
2018-11-22T13:38:15.458Z,10.42
2018-11-22T13:40:45.254Z,10.51
2018-11-22T13:43:14.984Z,10.47
2018-11-22T13:45:44.838Z,10.32
2018-11-22T13:48:14.886Z,10.41
2018-11-22T13:50:44.631Z,10.40
2018-11-22T13:53:14.791Z,10.41
2018-11-22T13:55:44.604Z,10.21
2018-11-22T13:58:14.434Z,10.24
2018-11-22T14:00:44.225Z,10.38
2018-11-22T14:03:14.024Z,10.21
2018-11-22T14:05:43.844Z,10.28
2018-11-22T14:08:13.557Z,9.98
2018-11-22T14:10:43.493Z,9.82
2018-11-22T14:13:13.399Z,9.97
2018-11-22T14:15:43.890Z,10.07
2018-11-22T14:18:13.611Z,10.07
2018-11-22T14:20:43.471Z,10.07
2018-11-22T14:26:28.293Z,9.97
2018-11-22T14:28:58.009Z,9.92
2018-11-22T14:31:27.951Z,9.74
2018-11-22T14:33:57.733Z,9.76
2018-11-22T14:36:27.651Z,9.82
2018-11-22T14:38:57.614Z,9.86
2018-11-22T14:41:27.667Z,9.92
2018-11-22T14:43:57.621Z,9.98
2018-11-22T14:46:27.550Z,10.00
2018-11-22T14:48:57.710Z,10.10
2018-11-22T14:51:36.977Z,10.07
2018-11-22T14:54:07.040Z,9.94
2018-11-22T14:56:36.765Z,9.99
2018-11-22T14:59:06.718Z,10.02
2018-11-22T15:01:36.692Z,9.97
2018-11-22T15:04:06.681Z,9.90
2018-11-22T15:06:36.520Z,9.87
2018-11-22T15:09:09.252Z,9.84
2018-11-22T15:11:39.305Z,9.93
2018-11-22T15:14:10.033Z,9.84
2018-11-22T15:16:39.782Z,9.84
2018-11-22T15:19:10.376Z,9.84
2018-11-22T15:21:40.328Z,9.87
2018-11-22T15:24:10.202Z,9.81
2018-11-22T15:26:40.040Z,9.77
2018-11-22T15:29:09.950Z,9.81
2018-11-22T15:31:39.693Z,9.81
2018-11-22T15:34:09.433Z,9.85
2018-11-22T15:36:39.362Z,9.84
2018-11-22T15:39:10.305Z,9.86
2018-11-22T15:41:40.219Z,9.95
2018-11-22T15:44:10.083Z,9.93
2018-11-22T15:46:39.939Z,9.97
2018-11-22T15:49:09.684Z,9.98
2018-11-22T15:51:39.467Z,9.97
2018-11-22T15:54:09.298Z,9.93
2018-11-22T15:56:39.199Z,9.97
2018-11-22T15:59:09.188Z,9.88
2018-11-22T16:01:38.842Z,9.80
2018-11-22T16:04:08.680Z,9.79
2018-11-22T16:06:38.580Z,9.73
2018-11-22T16:09:10.617Z,9.80
2018-11-22T16:11:40.332Z,8.92
2018-11-22T16:14:10.345Z,9.74
2018-11-22T16:16:40.646Z,9.88
2018-11-22T16:19:10.579Z,9.80
2018-11-22T16:21:40.558Z,9.76
2018-11-22T16:24:10.236Z,9.71
2018-11-22T16:26:40.115Z,9.69
2018-11-22T16:29:09.950Z,9.77
2018-11-22T16:31:39.805Z,9.70
2018-11-22T16:34:09.629Z,9.67
2018-11-22T16:36:40.026Z,9.72
2018-11-22T16:39:10.848Z,9.79
2018-11-22T16:41:40.590Z,9.78
2018-11-22T16:44:10.447Z,9.79
2018-11-22T16:46:40.402Z,9.75
2018-11-22T16:49:10.184Z,9.80
2018-11-22T16:51:39.954Z,9.71
2018-11-22T16:54:09.963Z,9.78
2018-11-22T16:56:39.699Z,9.80
2018-11-22T16:59:10.203Z,9.78
2018-11-22T17:01:40.088Z,4.89
2018-11-22T17:04:09.947Z,9.71
2018-11-22T17:06:39.883Z,9.76
2018-11-22T17:09:10.594Z,9.78
2018-11-22T17:11:40.434Z,9.78
2018-11-22T17:14:10.194Z,9.82
2018-11-22T17:16:39.942Z,9.87
2018-11-22T17:19:09.702Z,9.88
2018-11-22T17:21:39.630Z,9.79
2018-11-22T17:24:09.479Z,9.89
2018-11-22T17:26:39.337Z,9.85
2018-11-22T17:29:09.270Z,9.82
2018-11-22T17:31:38.981Z,9.73
2018-11-22T17:34:08.768Z,9.79
2018-11-22T17:36:38.570Z,9.75
2018-11-22T17:39:14.375Z,9.82
2018-11-22T17:41:44.281Z,9.76
2018-11-22T17:44:14.039Z,9.75
2018-11-22T17:46:43.987Z,9.77
2018-11-22T17:49:13.762Z,9.85
2018-11-22T17:51:43.682Z,9.85
2018-11-22T17:54:13.583Z,9.90
2018-11-22T17:56:43.455Z,9.87
2018-11-22T17:59:13.330Z,9.89
2018-11-22T18:01:43.267Z,9.89
2018-11-22T18:04:13.246Z,9.89
2018-11-22T18:06:45.142Z,9.86
2018-11-22T18:09:14.917Z,9.86
2018-11-22T18:11:44.763Z,9.86
2018-11-22T18:14:14.762Z,9.88
2018-11-22T18:16:44.518Z,9.89
2018-11-22T18:19:14.355Z,9.92
2018-11-22T18:21:44.205Z,9.98
2018-11-22T18:24:14.769Z,9.62
2018-11-22T18:26:44.669Z,9.99
2018-11-22T18:29:14.543Z,9.99
2018-11-22T18:31:44.297Z,9.99
2018-11-22T18:34:14.586Z,10.05
2018-11-22T18:36:44.498Z,10.02
2018-11-22T18:39:14.293Z,10.11
2018-11-22T18:41:44.136Z,10.07
2018-11-22T18:44:13.637Z,10.07
2018-11-22T18:46:43.423Z,10.05
2018-11-22T18:49:13.311Z,10.07
2018-11-22T18:51:43.263Z,10.05
2018-11-22T18:54:13.174Z,10.01
2018-11-22T18:56:42.996Z,10.07
2018-11-22T18:59:13.081Z,10.04
2018-11-22T19:01:44.997Z,9.92
2018-11-22T19:04:12.592Z,10.01
2018-11-22T19:06:45.968Z,9.92
2018-11-22T19:09:15.785Z,10.02
2018-11-22T19:11:45.550Z,10.11
2018-11-22T19:14:29.788Z,10.06
2018-11-22T19:16:59.606Z,9.95
2018-11-22T19:19:29.316Z,9.96
2018-11-22T19:21:59.136Z,9.87
2018-11-22T19:24:28.825Z,9.89
2018-11-22T19:26:58.837Z,9.86
2018-11-22T19:29:28.666Z,9.73
2018-11-22T19:31:58.828Z,9.73
2018-11-22T19:34:28.605Z,9.61
2018-11-22T19:36:58.405Z,9.50
2018-11-22T19:39:28.208Z,9.60
2018-11-22T19:41:58.251Z,9.54
2018-11-22T19:44:28.200Z,9.60
2018-11-22T19:46:58.082Z,9.58
2018-11-22T19:49:27.843Z,9.48
2018-11-22T19:51:57.710Z,9.31
2018-11-22T19:54:27.449Z,9.21
2018-11-22T19:56:57.219Z,9.26
2018-11-22T19:59:27.038Z,9.03
2018-11-22T20:01:56.907Z,9.05
2018-11-22T20:04:27.923Z,9.16
2018-11-22T20:06:57.769Z,9.06
2018-11-22T20:09:27.713Z,8.99
2018-11-22T20:11:57.444Z,8.84
2018-11-22T20:14:27.178Z,8.75
2018-11-22T20:16:57.007Z,8.82
2018-11-22T20:19:26.750Z,8.58
2018-11-22T20:21:57.341Z,8.40
2018-11-22T20:24:27.175Z,8.47
2018-11-22T20:26:57.035Z,8.68
2018-11-22T20:29:26.826Z,8.74
2018-11-22T20:31:56.620Z,8.73
2018-11-22T20:34:26.443Z,8.49
2018-11-22T20:36:56.352Z,8.57
2018-11-22T20:39:26.160Z,8.53
2018-11-22T20:41:55.903Z,8.68
2018-11-22T20:44:27.857Z,8.56
2018-11-22T20:46:57.704Z,8.60
2018-11-22T20:49:27.629Z,8.59
2018-11-22T20:51:57.321Z,8.61
2018-11-22T20:54:27.110Z,8.36
2018-11-22T20:56:56.874Z,8.41
2018-11-22T20:59:26.612Z,8.47
2018-11-22T21:01:56.476Z,8.30
2018-11-22T21:04:26.216Z,8.51
2018-11-22T21:06:57.002Z,8.52
2018-11-22T21:09:26.839Z,8.48
2018-11-22T21:11:56.678Z,8.53
2018-11-22T21:14:26.541Z,8.62
2018-11-22T21:16:56.317Z,8.69
2018-11-22T21:19:26.073Z,8.72
2018-11-22T21:21:55.794Z,8.62
2018-11-22T21:24:25.669Z,8.65
2018-11-22T21:26:55.589Z,8.72
2018-11-22T21:29:25.444Z,8.67
2018-11-22T21:31:55.248Z,8.57
2018-11-22T21:34:25.040Z,8.59
2018-11-22T21:36:54.839Z,8.53
2018-11-22T21:39:24.577Z,8.37
2018-11-22T21:41:54.225Z,8.43
2018-11-22T21:44:24.115Z,8.43
2018-11-22T21:46:53.800Z,8.36
2018-11-22T21:49:23.626Z,8.36
2018-11-22T21:51:53.469Z,8.20
2018-11-22T21:54:23.489Z,8.16
2018-11-22T21:56:53.238Z,7.86
2018-11-22T21:59:22.963Z,7.88
2018-11-22T22:01:52.753Z,7.76
2018-11-22T22:04:22.733Z,7.58
2018-11-22T22:06:52.472Z,7.70
2018-11-22T22:09:22.321Z,7.58
2018-11-22T22:11:52.101Z,7.53
2018-11-22T22:14:22.272Z,7.64
2018-11-22T22:16:51.914Z,7.63
2018-11-22T22:19:21.834Z,7.54
2018-11-22T22:21:51.718Z,7.57
2018-11-22T22:24:21.839Z,7.60
2018-11-22T22:26:51.719Z,7.60
2018-11-22T22:29:21.989Z,7.58
2018-11-22T22:31:51.699Z,7.45
2018-11-22T22:34:21.606Z,7.50
2018-11-22T22:36:51.310Z,7.60
2018-11-22T22:39:21.134Z,7.60
2018-11-22T22:41:50.993Z,7.49
2018-11-22T22:44:20.970Z,7.45
2018-11-22T22:46:51.326Z,7.67
2018-11-22T22:49:21.121Z,7.65
2018-11-22T22:51:51.325Z,7.57
2018-11-22T22:54:21.140Z,7.63
2018-11-22T22:56:50.860Z,7.69
2018-11-22T22:59:21.952Z,7.66
2018-11-22T23:01:51.687Z,7.72
2018-11-22T23:04:21.611Z,7.72
2018-11-22T23:06:52.446Z,7.67
2018-11-22T23:09:22.296Z,7.73
2018-11-22T23:11:56.127Z,7.79
2018-11-22T23:14:26.128Z,7.61
2018-11-22T23:16:55.992Z,7.53
2018-11-22T23:19:25.856Z,7.54
2018-11-22T23:21:55.633Z,7.57
2018-11-22T23:24:25.469Z,7.49
2018-11-22T23:26:55.249Z,7.53
2018-11-22T23:29:25.098Z,7.62
2018-11-22T23:31:54.863Z,7.65
2018-11-22T23:34:24.711Z,7.66
2018-11-22T23:36:54.426Z,7.58
2018-11-22T23:39:24.270Z,7.48
2018-11-22T23:41:54.181Z,7.55
2018-11-22T23:44:23.966Z,7.56
2018-11-22T23:46:53.774Z,7.50
2018-11-22T23:49:23.569Z,7.64
2018-11-22T23:51:53.310Z,7.55
2018-11-22T23:54:22.954Z,7.53
2018-11-22T23:56:55.358Z,7.57
2018-11-22T23:59:25.141Z,7.46
